sensor_id;sensor_type;location;lat;lon;timestamp;pressure;altitude;pressure_sealevel;temperature;humidity
10145;BME280;5113;41.822;23.564;2023-02-23T00:02:34;-10947.06;;;0.46;100.00
10145;BME280;5113;41.822;23.564;2023-02-23T00:05:41;-10950.56;;;0.58;100.00
10145;BME280;5113;41.822;23.564;2023-02-23T00:08:47;-10947.34;;;0.47;100.00
10145;BME280;5113;41.822;23.564;2023-02-23T00:11:55;-10953.09;;;0.68;100.00
10145;BME280;5113;41.822;23.564;2023-02-23T00:15:04;-10949.44;;;0.54;100.00
10145;BME280;5113;41.822;23.564;2023-02-23T00:18:11;-10960.38;;;0.94;100.00
10145;BME280;5113;41.822;23.564;2023-02-23T00:21:20;-10957.84;;;0.85;100.00
10145;BME280;5113;41.822;23.564;2023-02-23T00:24:26;-10965.00;;;1.11;100.00
10145;BME280;5113;41.822;23.564;2023-02-23T00:27:34;-10970.75;;;1.31;100.00
10145;BME280;5113;41.822;23.564;2023-02-23T00:30:43;-10974.66;;;1.46;100.00
10145;BME280;5113;41.822;23.564;2023-02-23T00:33:51;-10969.34;;;1.26;100.00
10145;BME280;5113;41.822;23.564;2023-02-23T00:36:58;-10968.50;;;1.23;100.00
10145;BME280;5113;41.822;23.564;2023-02-23T00:40:05;-10969.63;;;1.27;100.00
10145;BME280;5113;41.822;23.564;2023-02-23T00:43:17;-10957.16;;;0.82;100.00
10145;BME280;5113;41.822;23.564;2023-02-23T00:46:29;-10951.41;;;0.61;100.00
10145;BME280;5113;41.822;23.564;2023-02-23T00:49:35;-10950.16;;;0.57;100.00
10145;BME280;5113;41.822;23.564;2023-02-23T00:52:42;-10959.25;;;0.90;100.00
10145;BME280;5113;41.822;23.564;2023-02-23T00:55:49;-10940.06;;;0.20;100.00
10145;BME280;5113;41.822;23.564;2023-02-23T00:58:55;-10934.88;;;0.02;100.00
10145;BME280;5113;41.822;23.564;2023-02-23T01:02:04;-10941.59;;;0.26;100.00
10145;BME280;5113;41.822;23.564;2023-02-23T01:05:10;-10935.72;;;0.05;100.00
10145;BME280;5113;41.822;23.564;2023-02-23T01:08:17;-10939.91;;;0.20;100.00
10145;BME280;5113;41.822;23.564;2023-02-23T01:11:26;-10951.53;;;0.62;100.00
10145;BME280;5113;41.822;23.564;2023-02-23T01:14:35;-10960.66;;;0.95;100.00
10145;BME280;5113;41.822;23.564;2023-02-23T01:17:44;-10965.16;;;1.11;100.00
10145;BME280;5113;41.822;23.564;2023-02-23T01:20:50;-10965.84;;;1.14;100.00
10145;BME280;5113;41.822;23.564;2023-02-23T01:23:57;-10953.78;;;0.70;100.00
10145;BME280;5113;41.822;23.564;2023-02-23T01:27:03;-10965.56;;;1.13;100.00
10145;BME280;5113;41.822;23.564;2023-02-23T01:30:12;-10944.69;;;0.37;100.00
10145;BME280;5113;41.822;23.564;2023-02-23T01:33:21;-10934.47;;;0.00;100.00
10145;BME280;5113;41.822;23.564;2023-02-23T01:36:28;-10940.91;;;0.23;100.00
10145;BME280;5113;41.822;23.564;2023-02-23T01:39:35;-10947.78;;;0.48;100.00
10145;BME280;5113;41.822;23.564;2023-02-23T01:42:44;-10938.53;;;0.15;100.00
10145;BME280;5113;41.822;23.564;2023-02-23T01:45:53;-10925.78;;;-0.31;100.00
10145;BME280;5113;41.822;23.564;2023-02-23T01:49:02;-10922.84;;;-0.42;100.00
10145;BME280;5113;41.822;23.564;2023-02-23T01:52:12;-10922.69;;;-0.43;100.00
10145;BME280;5113;41.822;23.564;2023-02-23T01:55:21;-10944.81;;;0.38;100.00
10145;BME280;5113;41.822;23.564;2023-02-23T01:58:29;-10948.06;;;0.49;100.00
10145;BME280;5113;41.822;23.564;2023-02-23T02:01:38;-10953.50;;;0.69;100.00
10145;BME280;5113;41.822;23.564;2023-02-23T02:04:48;-10951.97;;;0.63;100.00
10145;BME280;5113;41.822;23.564;2023-02-23T02:07:56;-10948.06;;;0.49;100.00
10145;BME280;5113;41.822;23.564;2023-02-23T02:11:03;-10962.34;;;1.01;100.00
10145;BME280;5113;41.822;23.564;2023-02-23T02:14:30;-10965.16;;;1.11;100.00
10145;BME280;5113;41.822;23.564;2023-02-23T02:17:42;-10951.53;;;0.62;100.00
10145;BME280;5113;41.822;23.564;2023-02-23T02:21:34;-10946.50;;;0.44;100.00
10145;BME280;5113;41.822;23.564;2023-02-23T02:25:19;-10943.00;;;0.31;100.00
10145;BME280;5113;41.822;23.564;2023-02-23T02:28:42;-10928.16;;;-0.23;100.00
10145;BME280;5113;41.822;23.564;2023-02-23T02:32:28;-10917.66;;;-0.61;100.00
10145;BME280;5113;41.822;23.564;2023-02-23T02:36:05;-10935.28;;;0.03;100.00
10145;BME280;5113;41.822;23.564;2023-02-23T02:39:19;-10945.38;;;0.40;100.00
10145;BME280;5113;41.822;23.564;2023-02-23T02:42:48;-10929.56;;;-0.18;100.00
10145;BME280;5113;41.822;23.564;2023-02-23T02:46:01;-10925.06;;;-0.34;100.00
10145;BME280;5113;41.822;23.564;2023-02-23T02:49:13;-10934.59;;;0.00;100.00
10145;BME280;5113;41.822;23.564;2023-02-23T02:52:28;-10943.84;;;0.34;100.00
10145;BME280;5113;41.822;23.564;2023-02-23T02:55:39;-10942.16;;;0.28;100.00
10145;BME280;5113;41.822;23.564;2023-02-23T02:58:48;-10949.88;;;0.56;100.00
10145;BME280;5113;41.822;23.564;2023-02-23T03:01:55;-10951.97;;;0.63;100.00
10145;BME280;5113;41.822;23.564;2023-02-23T03:05:23;-10924.50;;;-0.36;100.00
10145;BME280;5113;41.822;23.564;2023-02-23T03:08:53;-10908.84;;;-0.93;100.00
10145;BME280;5113;41.822;23.564;2023-02-23T03:12:28;-10909.94;;;-0.89;100.00
10145;BME280;5113;41.822;23.564;2023-02-23T03:16:01;-10931.53;;;-0.11;100.00
10145;BME280;5113;41.822;23.564;2023-02-23T03:19:28;-10936.00;;;0.06;100.00
10145;BME280;5113;41.822;23.564;2023-02-23T03:22:57;-10946.50;;;0.44;100.00
10145;BME280;5113;41.822;23.564;2023-02-23T03:26:27;-10940.06;;;0.20;100.00
10145;BME280;5113;41.822;23.564;2023-02-23T03:29:58;-10932.63;;;-0.07;100.00
10145;BME280;5113;41.822;23.564;2023-02-23T03:33:31;-10931.94;;;-0.09;100.00
10145;BME280;5113;41.822;23.564;2023-02-23T03:37:02;-10931.25;;;-0.12;100.00
10145;BME280;5113;41.822;23.564;2023-02-23T03:40:31;-10925.91;;;-0.31;100.00
10145;BME280;5113;41.822;23.564;2023-02-23T03:43:59;-10930.69;;;-0.14;100.00
10145;BME280;5113;41.822;23.564;2023-02-23T03:47:29;-10938.38;;;0.14;100.00
10145;BME280;5113;41.822;23.564;2023-02-23T03:50:56;-10913.47;;;-0.76;100.00
10145;BME280;5113;41.822;23.564;2023-02-23T03:54:25;-10909.41;;;-0.91;100.00
10145;BME280;5113;41.822;23.564;2023-02-23T03:57:52;-10915.41;;;-0.69;100.00
10145;BME280;5113;41.822;23.564;2023-02-23T04:01:19;-10913.72;;;-0.75;100.00
10145;BME280;5113;41.822;23.564;2023-02-23T04:04:45;-10923.69;;;-0.39;100.00
10145;BME280;5113;41.822;23.564;2023-02-23T04:08:13;-10919.19;;;-0.55;100.00
10145;BME280;5113;41.822;23.564;2023-02-23T04:11:42;-10919.19;;;-0.55;100.00
10145;BME280;5113;41.822;23.564;2023-02-23T04:15:11;-10934.31;;;-0.01;100.00
10145;BME280;5113;41.822;23.564;2023-02-23T04:18:22;-10921.44;;;-0.47;100.00
10145;BME280;5113;41.822;23.564;2023-02-23T04:21:30;-10940.47;;;0.22;100.00
10145;BME280;5113;41.822;23.564;2023-02-23T04:24:36;-10917.94;;;-0.60;100.00
10145;BME280;5113;41.822;23.564;2023-02-23T04:27:42;-10910.09;;;-0.88;100.00
10145;BME280;5113;41.822;23.564;2023-02-23T04:30:49;-10905.19;;;-1.06;100.00
10145;BME280;5113;41.822;23.564;2023-02-23T04:33:56;-10902.25;;;-1.17;100.00
10145;BME280;5113;41.822;23.564;2023-02-23T04:37:04;-10900.00;;;-1.25;100.00
10145;BME280;5113;41.822;23.564;2023-02-23T04:40:11;-10926.63;;;-0.28;100.00
10145;BME280;5113;41.822;23.564;2023-02-23T04:43:18;-10937.97;;;0.13;100.00
10145;BME280;5113;41.822;23.564;2023-02-23T04:46:24;-10939.22;;;0.17;100.00
10145;BME280;5113;41.822;23.564;2023-02-23T04:49:30;-10926.47;;;-0.29;100.00
10145;BME280;5113;41.822;23.564;2023-02-23T04:52:38;-10917.25;;;-0.62;100.00
10145;BME280;5113;41.822;23.564;2023-02-23T04:55:44;-10916.13;;;-0.67;100.00
10145;BME280;5113;41.822;23.564;2023-02-23T04:58:51;-10920.03;;;-0.52;100.00
10145;BME280;5113;41.822;23.564;2023-02-23T05:01:57;-10920.03;;;-0.52;100.00
10145;BME280;5113;41.822;23.564;2023-02-23T05:05:05;-10930.69;;;-0.14;100.00
10145;BME280;5113;41.822;23.564;2023-02-23T05:08:14;-10930.41;;;-0.15;100.00
10145;BME280;5113;41.822;23.564;2023-02-23T05:11:21;-10934.59;;;0.00;100.00
10145;BME280;5113;41.822;23.564;2023-02-23T05:14:28;-10928.03;;;-0.23;100.00
10145;BME280;5113;41.822;23.564;2023-02-23T05:17:37;-10926.75;;;-0.28;100.00
10145;BME280;5113;41.822;23.564;2023-02-23T05:20:45;-10911.22;;;-0.84;100.00
10145;BME280;5113;41.822;23.564;2023-02-23T05:23:52;-10908.28;;;-0.95;100.00
10145;BME280;5113;41.822;23.564;2023-02-23T05:26:58;-10929.28;;;-0.19;100.00
10145;BME280;5113;41.822;23.564;2023-02-23T05:30:06;-10918.06;;;-0.59;100.00
10145;BME280;5113;41.822;23.564;2023-02-23T05:33:13;-10928.72;;;-0.21;100.00
10145;BME280;5113;41.822;23.564;2023-02-23T05:36:21;-10937.69;;;0.12;100.00
10145;BME280;5113;41.822;23.564;2023-02-23T05:39:30;-10938.25;;;0.14;100.00
10145;BME280;5113;41.822;23.564;2023-02-23T05:42:36;-10945.53;;;0.40;100.00
10145;BME280;5113;41.822;23.564;2023-02-23T05:45:43;-10947.50;;;0.47;100.00
10145;BME280;5113;41.822;23.564;2023-02-23T05:48:50;-10948.59;;;0.51;100.00
10145;BME280;5113;41.822;23.564;2023-02-23T05:51:56;-10944.69;;;0.37;100.00
10145;BME280;5113;41.822;23.564;2023-02-23T05:55:05;-10938.53;;;0.15;100.00
10145;BME280;5113;41.822;23.564;2023-02-23T05:58:12;-10950.44;;;0.58;100.00
10145;BME280;5113;41.822;23.564;2023-02-23T06:01:19;-10961.62;;;0.98;100.00
10145;BME280;5113;41.822;23.564;2023-02-23T06:04:25;-10967.66;;;1.20;100.00
10145;BME280;5113;41.822;23.564;2023-02-23T06:07:32;-10975.09;;;1.47;100.00
10145;BME280;5113;41.822;23.564;2023-02-23T06:10:39;-10990.94;;;2.05;100.00
10145;BME280;5113;41.822;23.564;2023-02-23T06:13:46;-10986.88;;;1.90;100.00
10145;BME280;5113;41.822;23.564;2023-02-23T06:16:52;-10992.91;;;2.12;100.00
10145;BME280;5113;41.822;23.564;2023-02-23T06:19:58;-11003.81;;;2.51;100.00
10145;BME280;5113;41.822;23.564;2023-02-23T06:23:06;-10967.25;;;1.19;100.00
10145;BME280;5113;41.822;23.564;2023-02-23T06:26:14;-10964.16;;;1.08;100.00
10145;BME280;5113;41.822;23.564;2023-02-23T06:29:20;-10971.88;;;1.36;100.00
10145;BME280;5113;41.822;23.564;2023-02-23T06:32:27;-10994.72;;;2.18;100.00
10145;BME280;5113;41.822;23.564;2023-02-23T06:35:34;-10984.75;;;1.82;100.00
10145;BME280;5113;41.822;23.564;2023-02-23T06:38:40;-10988.97;;;1.97;100.00
10145;BME280;5113;41.822;23.564;2023-02-23T06:41:50;-10998.34;;;2.31;100.00
10145;BME280;5113;41.822;23.564;2023-02-23T06:44:56;-10993.72;;;2.15;100.00
10145;BME280;5113;41.822;23.564;2023-02-23T06:48:03;-11000.75;;;2.40;100.00
10145;BME280;5113;41.822;23.564;2023-02-23T06:51:09;-11005.50;;;2.57;100.00
10145;BME280;5113;41.822;23.564;2023-02-23T06:54:15;-11009.16;;;2.71;100.00
10145;BME280;5113;41.822;23.564;2023-02-23T06:57:23;-11020.38;;;3.11;100.00
10145;BME280;5113;41.822;23.564;2023-02-23T07:00:30;-11029.34;;;3.44;100.00
10145;BME280;5113;41.822;23.564;2023-02-23T07:03:36;-11041.13;;;3.86;100.00
10145;BME280;5113;41.822;23.564;2023-02-23T07:06:42;-11055.16;;;4.37;99.20
10145;BME280;5113;41.822;23.564;2023-02-23T07:09:49;-11064.28;;;4.70;96.60
10145;BME280;5113;41.822;23.564;2023-02-23T07:12:56;-11070.88;;;4.94;93.55
10145;BME280;5113;41.822;23.564;2023-02-23T07:16:04;-11072.28;;;4.99;93.92
10145;BME280;5113;41.822;23.564;2023-02-23T07:19:10;-11085.47;;;5.47;91.56
10145;BME280;5113;41.822;23.564;2023-02-23T07:22:16;-11093.63;;;5.76;92.09
10145;BME280;5113;41.822;23.564;2023-02-23T07:25:23;-11084.63;;;5.44;94.08
10145;BME280;5113;41.822;23.564;2023-02-23T07:28:31;-11089.13;;;5.60;94.49
10145;BME280;5113;41.822;23.564;2023-02-23T07:31:38;-11098.25;;;5.93;93.05
10145;BME280;5113;41.822;23.564;2023-02-23T07:34:45;-11099.53;;;5.97;91.88
10145;BME280;5113;41.822;23.564;2023-02-23T07:37:51;-11100.66;;;6.02;92.36
10145;BME280;5113;41.822;23.564;2023-02-23T07:40:59;-11110.75;;;6.38;89.46
10145;BME280;5113;41.822;23.564;2023-02-23T07:44:07;-11109.50;;;6.34;89.30
10145;BME280;5113;41.822;23.564;2023-02-23T07:47:14;-11115.81;;;6.56;90.99
10145;BME280;5113;41.822;23.564;2023-02-23T07:50:20;-11120.03;;;6.72;88.42
10145;BME280;5113;41.822;23.564;2023-02-23T07:53:27;-11123.97;;;6.86;84.90
10145;BME280;5113;41.822;23.564;2023-02-23T07:56:33;-11128.47;;;7.02;83.39
10145;BME280;5113;41.822;23.564;2023-02-23T07:59:41;-11132.66;;;7.17;82.01
10145;BME280;5113;41.822;23.564;2023-02-23T08:02:48;-11143.50;;;7.56;78.94
10145;BME280;5113;41.822;23.564;2023-02-23T08:05:54;-11157.53;;;8.07;76.48
10145;BME280;5113;41.822;23.564;2023-02-23T08:09:02;-11150.94;;;7.83;75.73
10145;BME280;5113;41.822;23.564;2023-02-23T08:12:08;-11159.50;;;8.14;73.85
10145;BME280;5113;41.822;23.564;2023-02-23T08:15:17;-11161.75;;;8.22;72.58
10145;BME280;5113;41.822;23.564;2023-02-23T08:18:24;-11181.00;;;8.92;70.63
10145;BME280;5113;41.822;23.564;2023-02-23T08:21:31;-11172.72;;;8.62;70.58
10145;BME280;5113;41.822;23.564;2023-02-23T08:24:37;-11175.38;;;8.72;69.12
10145;BME280;5113;41.822;23.564;2023-02-23T08:27:43;-11176.09;;;8.74;69.12
10145;BME280;5113;41.822;23.564;2023-02-23T08:30:51;-11178.63;;;8.83;67.33
10145;BME280;5113;41.822;23.564;2023-02-23T08:33:57;-11181.16;;;8.92;67.05
10145;BME280;5113;41.822;23.564;2023-02-23T08:37:03;-11195.34;;;9.44;65.18
10145;BME280;5113;41.822;23.564;2023-02-23T08:40:11;-11192.53;;;9.34;66.34
10145;BME280;5113;41.822;23.564;2023-02-23T08:43:19;-11209.97;;;9.97;63.89
10145;BME280;5113;41.822;23.564;2023-02-23T08:46:26;-11212.78;;;10.07;62.49
10145;BME280;5113;41.822;23.564;2023-02-23T08:49:33;-11225.44;;;10.52;61.75
10145;BME280;5113;41.822;23.564;2023-02-23T08:52:39;-11227.13;;;10.58;60.13
10145;BME280;5113;41.822;23.564;2023-02-23T08:55:46;-11221.94;;;10.40;60.71
10145;BME280;5113;41.822;23.564;2023-02-23T08:58:52;-11247.97;;;11.34;58.14
10145;BME280;5113;41.822;23.564;2023-02-23T09:02:00;-11254.72;;;11.58;56.36
10145;BME280;5113;41.822;23.564;2023-02-23T09:05:07;-11241.47;;;11.10;57.69
10145;BME280;5113;41.822;23.564;2023-02-23T09:08:14;-11245.16;;;11.23;57.31
10145;BME280;5113;41.822;23.564;2023-02-23T09:11:21;-11251.75;;;11.47;56.23
10145;BME280;5113;41.822;23.564;2023-02-23T09:14:27;-11251.75;;;11.47;56.69
10145;BME280;5113;41.822;23.564;2023-02-23T09:17:35;-11254.84;;;11.58;55.69
10145;BME280;5113;41.822;23.564;2023-02-23T09:20:43;-11277.22;;;12.39;53.66
10145;BME280;5113;41.822;23.564;2023-02-23T09:23:51;-11270.19;;;12.14;53.94
10145;BME280;5113;41.822;23.564;2023-02-23T09:27:00;-11288.34;;;12.79;53.04
10145;BME280;5113;41.822;23.564;2023-02-23T09:30:07;-11283.41;;;12.62;52.90
10145;BME280;5113;41.822;23.564;2023-02-23T09:33:15;-11290.47;;;12.87;52.45
10145;BME280;5113;41.822;23.564;2023-02-23T09:36:23;-11289.19;;;12.82;52.64
10145;BME280;5113;41.822;23.564;2023-02-23T09:39:31;-11289.63;;;12.84;52.33
10145;BME280;5113;41.822;23.564;2023-02-23T09:42:45;-11304.81;;;13.39;51.80
10145;BME280;5113;41.822;23.564;2023-02-23T09:46:05;-11305.66;;;13.42;50.78
10145;BME280;5113;41.822;23.564;2023-02-23T09:49:22;-11306.78;;;13.46;49.98
10145;BME280;5113;41.822;23.564;2023-02-23T09:52:37;-11324.94;;;14.11;48.30
10145;BME280;5113;41.822;23.564;2023-02-23T09:55:46;-11316.66;;;13.81;48.89
10145;BME280;5113;41.822;23.564;2023-02-23T09:58:53;-11319.31;;;13.91;49.47
10145;BME280;5113;41.822;23.564;2023-02-23T10:02:04;-11312.84;;;13.68;48.30
10145;BME280;5113;41.822;23.564;2023-02-23T10:05:16;-11324.25;;;14.09;47.42
10145;BME280;5113;41.822;23.564;2023-02-23T10:08:45;-11334.38;;;14.45;47.80
10145;BME280;5113;41.822;23.564;2023-02-23T10:12:01;-11356.06;;;15.24;46.32
10145;BME280;5113;41.822;23.564;2023-02-23T10:15:22;-11344.38;;;14.81;46.05
10145;BME280;5113;41.822;23.564;2023-02-23T10:18:35;-11356.38;;;15.25;46.57
10145;BME280;5113;41.822;23.564;2023-02-23T10:21:56;-11338.47;;;14.60;45.40
10145;BME280;5113;41.822;23.564;2023-02-23T10:25:10;-11350.72;;;15.04;44.25
10145;BME280;5113;41.822;23.564;2023-02-23T10:28:20;-11374.97;;;15.92;43.82
10145;BME280;5113;41.822;23.564;2023-02-23T10:31:31;-11367.63;;;15.65;43.59
10145;BME280;5113;41.822;23.564;2023-02-23T10:34:40;-11380.31;;;16.11;42.51
10145;BME280;5113;41.822;23.564;2023-02-23T10:37:50;-11354.66;;;15.18;44.80
10145;BME280;5113;41.822;23.564;2023-02-23T10:40:57;-11367.06;;;15.63;43.55
10145;BME280;5113;41.822;23.564;2023-02-23T10:44:10;-11383.41;;;16.22;42.48
10145;BME280;5113;41.822;23.564;2023-02-23T10:47:23;-11405.81;;;17.03;41.77
10145;BME280;5113;41.822;23.564;2023-02-23T10:50:32;-11384.13;;;16.25;42.21
10145;BME280;5113;41.822;23.564;2023-02-23T10:53:42;-11393.13;;;16.57;41.58
10145;BME280;5113;41.822;23.564;2023-02-23T10:56:51;-11400.31;;;16.83;41.51
10145;BME280;5113;41.822;23.564;2023-02-23T11:00:09;-11392.72;;;16.56;41.16
10145;BME280;5113;41.822;23.564;2023-02-23T11:03:34;-11392.56;;;16.55;40.71
10145;BME280;5113;41.822;23.564;2023-02-23T11:06:41;-11429.38;;;17.88;40.44
10145;BME280;5113;41.822;23.564;2023-02-23T11:09:50;-11421.88;;;17.61;39.38
10145;BME280;5113;41.822;23.564;2023-02-23T11:12:56;-11408.34;;;17.12;38.53
10145;BME280;5113;41.822;23.564;2023-02-23T11:16:04;-11412.59;;;17.27;38.50
10145;BME280;5113;41.822;23.564;2023-02-23T11:19:20;-11419.22;;;17.51;38.50
10145;BME280;5113;41.822;23.564;2023-02-23T11:22:32;-11417.22;;;17.44;38.65
10145;BME280;5113;41.822;23.564;2023-02-23T11:25:43;-11422.16;;;17.62;37.11
10145;BME280;5113;41.822;23.564;2023-02-23T11:28:55;-11430.22;;;17.91;37.08
10145;BME280;5113;41.822;23.564;2023-02-23T11:32:06;-11430.50;;;17.92;37.41
10145;BME280;5113;41.822;23.564;2023-02-23T11:35:26;-11454.47;;;18.78;36.44
10145;BME280;5113;41.822;23.564;2023-02-23T11:38:33;-11469.41;;;19.32;35.85
10145;BME280;5113;41.822;23.564;2023-02-23T11:41:41;-11469.41;;;19.32;35.54
10145;BME280;5113;41.822;23.564;2023-02-23T11:44:51;-11460.09;;;18.98;35.54
10145;BME280;5113;41.822;23.564;2023-02-23T11:48:18;-11455.31;;;18.81;36.02
10145;BME280;5113;41.822;23.564;2023-02-23T11:51:28;-11452.34;;;18.70;35.25
10145;BME280;5113;41.822;23.564;2023-02-23T11:54:35;-11438.25;;;18.20;36.20
10145;BME280;5113;41.822;23.564;2023-02-23T11:57:44;-11457.41;;;18.89;37.53
10145;BME280;5113;41.822;23.564;2023-02-23T12:00:54;-11441.47;;;18.31;36.15
10145;BME280;5113;41.822;23.564;2023-02-23T12:04:01;-11460.25;;;18.99;36.71
10145;BME280;5113;41.822;23.564;2023-02-23T12:07:27;-11449.53;;;18.60;36.08
10145;BME280;5113;41.822;23.564;2023-02-23T12:10:44;-11455.59;;;18.82;35.87
10145;BME280;5113;41.822;23.564;2023-02-23T12:13:57;-11466.44;;;19.21;35.90
10145;BME280;5113;41.822;23.564;2023-02-23T12:17:11;-11455.44;;;18.82;36.63
10145;BME280;5113;41.822;23.564;2023-02-23T12:20:22;-11445.84;;;18.47;38.04
10145;BME280;5113;41.822;23.564;2023-02-23T12:23:32;-11466.44;;;19.21;34.98
10145;BME280;5113;41.822;23.564;2023-02-23T12:26:45;-11467.72;;;19.26;35.36
10145;BME280;5113;41.822;23.564;2023-02-23T12:30:02;-11466.44;;;19.21;35.65
10145;BME280;5113;41.822;23.564;2023-02-23T12:33:15;-11424.28;;;17.69;38.13
10145;BME280;5113;41.822;23.564;2023-02-23T12:36:26;-11436.69;;;18.14;37.55
10145;BME280;5113;41.822;23.564;2023-02-23T12:39:39;-11459.69;;;18.97;36.13
10145;BME280;5113;41.822;23.564;2023-02-23T12:42:57;-11458.97;;;18.94;35.38
10145;BME280;5113;41.822;23.564;2023-02-23T12:46:10;-11474.47;;;19.50;35.12
10145;BME280;5113;41.822;23.564;2023-02-23T12:49:25;-11457.13;;;18.88;37.09
10145;BME280;5113;41.822;23.564;2023-02-23T12:52:36;-11461.22;;;19.02;36.80
10145;BME280;5113;41.822;23.564;2023-02-23T12:56:02;-11465.72;;;19.19;36.14
10145;BME280;5113;41.822;23.564;2023-02-23T12:59:44;-11460.38;;;18.99;36.31
10145;BME280;5113;41.822;23.564;2023-02-23T13:03:12;-11462.06;;;19.05;36.50
10145;BME280;5113;41.822;23.564;2023-02-23T13:06:28;-11461.22;;;19.02;35.97
10145;BME280;5113;41.822;23.564;2023-02-23T13:09:48;-11466.59;;;19.22;36.43
10145;BME280;5113;41.822;23.564;2023-02-23T13:13:04;-11473.91;;;19.48;35.43
10145;BME280;5113;41.822;23.564;2023-02-23T13:16:24;-11487.31;;;19.96;36.04
10145;BME280;5113;41.822;23.564;2023-02-23T13:19:39;-11473.22;;;19.45;36.13
10145;BME280;5113;41.822;23.564;2023-02-23T13:22:50;-11471.37;;;19.39;34.48
10145;BME280;5113;41.822;23.564;2023-02-23T13:26:04;-11468.97;;;19.30;36.91
10145;BME280;5113;41.822;23.564;2023-02-23T13:29:25;-11447.81;;;18.54;38.50
10145;BME280;5113;41.822;23.564;2023-02-23T13:32:36;-11446.28;;;18.48;38.27
10145;BME280;5113;41.822;23.564;2023-02-23T13:35:44;-11471.09;;;19.38;37.56
10145;BME280;5113;41.822;23.564;2023-02-23T13:39:06;-11465.44;;;19.18;37.50
10145;BME280;5113;41.822;23.564;2023-02-23T13:42:33;-11467.72;;;19.26;37.30
10145;BME280;5113;41.822;23.564;2023-02-23T13:45:52;-11476.19;;;19.56;36.25
10145;BME280;5113;41.822;23.564;2023-02-23T13:49:04;-11483.94;;;19.84;36.34
10145;BME280;5113;41.822;23.564;2023-02-23T13:52:25;-11485.47;;;19.90;37.33
10145;BME280;5113;41.822;23.564;2023-02-23T13:55:36;-11450.50;;;18.64;38.66
10145;BME280;5113;41.822;23.564;2023-02-23T13:58:57;-11460.66;;;19.00;37.95
10145;BME280;5113;41.822;23.564;2023-02-23T14:02:21;-11460.09;;;18.98;38.07
10145;BME280;5113;41.822;23.564;2023-02-23T14:05:29;-11445.16;;;18.44;39.73
10145;BME280;5113;41.822;23.564;2023-02-23T14:08:41;-11433.03;;;18.01;39.89
10145;BME280;5113;41.822;23.564;2023-02-23T14:11:49;-11441.06;;;18.30;38.63
10145;BME280;5113;41.822;23.564;2023-02-23T14:15:28;-11441.75;;;18.32;39.55
10145;BME280;5113;41.822;23.564;2023-02-23T14:19:13;-11419.50;;;17.52;40.97
10145;BME280;5113;41.822;23.564;2023-02-23T14:22:36;-11426.81;;;17.78;40.92
10145;BME280;5113;41.822;23.564;2023-02-23T14:26:13;-11413.56;;;17.31;41.09
10145;BME280;5113;41.822;23.564;2023-02-23T14:29:29;-11402.00;;;16.89;40.93
10145;BME280;5113;41.822;23.564;2023-02-23T14:32:38;-11409.78;;;17.17;40.48
10145;BME280;5113;41.822;23.564;2023-02-23T14:35:47;-11411.88;;;17.25;40.09
10145;BME280;5113;41.822;23.564;2023-02-23T14:38:58;-11409.78;;;17.17;40.05
10145;BME280;5113;41.822;23.564;2023-02-23T14:42:07;-11398.50;;;16.76;41.57
10145;BME280;5113;41.822;23.564;2023-02-23T14:45:18;-11386.38;;;16.33;41.68
10145;BME280;5113;41.822;23.564;2023-02-23T14:48:32;-11397.09;;;16.71;41.44
10145;BME280;5113;41.822;23.564;2023-02-23T14:51:44;-11373.13;;;15.85;42.79
10145;BME280;5113;41.822;23.564;2023-02-23T14:55:07;-11373.56;;;15.87;43.17
10145;BME280;5113;41.822;23.564;2023-02-23T14:58:25;-11374.69;;;15.91;43.51
10145;BME280;5113;41.822;23.564;2023-02-23T15:01:34;-11364.09;;;15.52;44.58
10145;BME280;5113;41.822;23.564;2023-02-23T15:04:41;-11366.50;;;15.61;44.01
10145;BME280;5113;41.822;23.564;2023-02-23T15:07:48;-11370.44;;;15.75;43.40
10145;BME280;5113;41.822;23.564;2023-02-23T15:11:00;-11363.41;;;15.50;44.66
10145;BME280;5113;41.822;23.564;2023-02-23T15:14:10;-11360.59;;;15.40;44.67
10145;BME280;5113;41.822;23.564;2023-02-23T15:17:32;-11347.91;;;14.94;46.53
10145;BME280;5113;41.822;23.564;2023-02-23T15:20:40;-11345.09;;;14.84;47.49
10145;BME280;5113;41.822;23.564;2023-02-23T15:23:49;-11355.38;;;15.21;46.29
10145;BME280;5113;41.822;23.564;2023-02-23T15:26:58;-11348.75;;;14.97;47.83
10145;BME280;5113;41.822;23.564;2023-02-23T15:30:20;-11344.25;;;14.81;48.15
10145;BME280;5113;41.822;23.564;2023-02-23T15:33:27;-11339.87;;;14.65;49.08
10145;BME280;5113;41.822;23.564;2023-02-23T15:36:34;-11344.66;;;14.82;48.79
10145;BME280;5113;41.822;23.564;2023-02-23T15:39:45;-11335.22;;;14.48;50.08
10145;BME280;5113;41.822;23.564;2023-02-23T15:42:57;-11338.06;;;14.59;49.98
10145;BME280;5113;41.822;23.564;2023-02-23T15:46:06;-11326.22;;;14.16;51.90
10145;BME280;5113;41.822;23.564;2023-02-23T15:49:13;-11325.38;;;14.13;52.13
10145;BME280;5113;41.822;23.564;2023-02-23T15:52:22;-11316.94;;;13.82;53.57
10145;BME280;5113;41.822;23.564;2023-02-23T15:55:32;-11322.28;;;14.02;53.41
10145;BME280;5113;41.822;23.564;2023-02-23T15:58:46;-11319.19;;;13.91;55.29
10145;BME280;5113;41.822;23.564;2023-02-23T16:02:09;-11311.28;;;13.62;57.42
10145;BME280;5113;41.822;23.564;2023-02-23T16:05:20;-11311.28;;;13.62;58.31
10145;BME280;5113;41.822;23.564;2023-02-23T16:08:27;-11302.44;;;13.30;60.18
10145;BME280;5113;41.822;23.564;2023-02-23T16:11:35;-11309.47;;;13.55;60.43
10145;BME280;5113;41.822;23.564;2023-02-23T16:14:44;-11295.53;;;13.05;63.92
10145;BME280;5113;41.822;23.564;2023-02-23T16:17:55;-11293.84;;;12.99;66.85
10145;BME280;5113;41.822;23.564;2023-02-23T16:21:04;-11285.13;;;12.68;69.54
10145;BME280;5113;41.822;23.564;2023-02-23T16:24:12;-11293.56;;;12.98;69.17
10145;BME280;5113;41.822;23.564;2023-02-23T16:27:27;-11286.78;;;12.74;70.94
10145;BME280;5113;41.822;23.564;2023-02-23T16:30:40;-11281.16;;;12.53;72.67
10145;BME280;5113;41.822;23.564;2023-02-23T16:33:52;-11279.19;;;12.46;74.12
10145;BME280;5113;41.822;23.564;2023-02-23T16:37:02;-11278.06;;;12.42;75.36
10145;BME280;5113;41.822;23.564;2023-02-23T16:40:12;-11275.81;;;12.34;76.90
10145;BME280;5113;41.822;23.564;2023-02-23T16:43:18;-11272.44;;;12.22;77.68
10145;BME280;5113;41.822;23.564;2023-02-23T16:46:27;-11268.22;;;12.07;79.08